ABI505 OERK-OEDF
Flight info
| Callsign | ABI505 |
|---|---|
| Flight time | 0h 45m |
| Altitude | 29000 |
| Route | ORNIP1D/33R ORNIP DCT MUSRI L604 UMENA |
| Aircraft | A320/M-SDE3FGHIRWY/LB1 |
Departure
| Time | 2026-04-22 20:13 |
|---|---|
| Airport | King Khalid International Airport (OERK) |
Arrival
| Time | 2026-04-22 20:59 |
|---|---|
| Airport | King Fahd International Airport (OEDF) |
| Time | Latitude | Longitude | Altitude | Speed | Heading |
|---|---|---|---|---|---|
| 2026-04-22 19:15 | 24.94769 | 46.71261 | 2005 ft | 0 kts | 59° |
| 2026-04-22 19:56 | 24.94763 | 46.71250 | 2040 ft | 4 kts | 75° |
| 2026-04-22 19:57 | 24.94765 | 46.71234 | 2035 ft | 4 kts | 149° |
| 2026-04-22 19:57 | 24.94774 | 46.71229 | 2041 ft | 3 kts | 60° |
| 2026-04-22 19:57 | 24.94759 | 46.71205 | 2042 ft | 4 kts | 48° |
| 2026-04-22 19:57 | 24.94740 | 46.71184 | 2037 ft | 4 kts | 42° |
| 2026-04-22 19:58 | 24.94724 | 46.71166 | 2037 ft | 4 kts | 95° |
| 2026-04-22 19:58 | 24.94726 | 46.71162 | 2040 ft | 4 kts | 150° |
| 2026-04-22 19:58 | 24.94739 | 46.71154 | 2036 ft | 0 kts | 150° |
| 2026-04-22 20:01 | 24.94738 | 46.71155 | 2039 ft | 1 kts | 150° |
| 2026-04-22 20:01 | 24.94734 | 46.71157 | 2037 ft | 1 kts | 150° |
| 2026-04-22 20:01 | 24.94727 | 46.71161 | 2038 ft | 2 kts | 150° |
| 2026-04-22 20:02 | 24.94713 | 46.71170 | 2035 ft | 3 kts | 149° |
| 2026-04-22 20:02 | 24.94704 | 46.71176 | 2037 ft | 2 kts | 149° |
| 2026-04-22 20:02 | 24.94703 | 46.71177 | 2037 ft | 0 kts | 149° |
| 2026-04-22 20:03 | 24.94681 | 46.71191 | 2040 ft | 11 kts | 149° |
| 2026-04-22 20:04 | 24.94621 | 46.71229 | 2034 ft | 8 kts | 150° |
| 2026-04-22 20:04 | 24.94582 | 46.71254 | 2034 ft | 5 kts | 150° |
| 2026-04-22 20:04 | 24.94563 | 46.71266 | 2037 ft | 3 kts | 150° |
| 2026-04-22 20:04 | 24.94551 | 46.71273 | 2033 ft | 4 kts | 150° |
| 2026-04-22 20:05 | 24.94507 | 46.71301 | 2035 ft | 9 kts | 150° |
| 2026-04-22 20:05 | 24.94459 | 46.71331 | 2036 ft | 8 kts | 150° |
| 2026-04-22 20:05 | 24.94423 | 46.71354 | 2037 ft | 4 kts | 150° |
| 2026-04-22 20:05 | 24.94397 | 46.71370 | 2040 ft | 5 kts | 151° |
| 2026-04-22 20:06 | 24.94375 | 46.71383 | 2036 ft | 2 kts | 151° |
| 2026-04-22 20:06 | 24.94363 | 46.71390 | 2037 ft | 3 kts | 150° |
| 2026-04-22 20:06 | 24.94320 | 46.71418 | 2037 ft | 12 kts | 149° |
| 2026-04-22 20:06 | 24.94241 | 46.71466 | 2037 ft | 12 kts | 151° |
| 2026-04-22 20:07 | 24.94204 | 46.71508 | 2057 ft | 6 kts | 110° |
| 2026-04-22 20:07 | 24.94222 | 46.71569 | 2037 ft | 12 kts | 55° |
| 2026-04-22 20:07 | 24.94274 | 46.71663 | 2035 ft | 16 kts | 60° |
| 2026-04-22 20:07 | 24.94331 | 46.71775 | 2041 ft | 17 kts | 60° |
| 2026-04-22 20:08 | 24.94385 | 46.71878 | 2035 ft | 11 kts | 60° |
| 2026-04-22 20:08 | 24.94391 | 46.71926 | 2035 ft | 11 kts | 107° |
| 2026-04-22 20:08 | 24.94304 | 46.72008 | 2039 ft | 7 kts | 119° |
| 2026-04-22 20:08 | 24.94303 | 46.72063 | 2037 ft | 7 kts | 72° |
| 2026-04-22 20:09 | 24.94326 | 46.72109 | 2043 ft | 7 kts | 59° |
| 2026-04-22 20:09 | 24.94334 | 46.72122 | 2043 ft | 0 kts | 59° |
| 2026-04-22 20:11 | 24.94336 | 46.72125 | 2043 ft | 3 kts | 59° |
| 2026-04-22 20:11 | 24.94367 | 46.72185 | 2034 ft | 11 kts | 57° |
| 2026-04-22 20:11 | 24.94411 | 46.72216 | 2038 ft | 12 kts | 16° |
| 2026-04-22 20:11 | 24.94507 | 46.72212 | 2038 ft | 15 kts | 339° |
| 2026-04-22 20:12 | 24.94609 | 46.72149 | 2038 ft | 20 kts | 330° |
| 2026-04-22 20:12 | 24.94874 | 46.71982 | 2032 ft | 73 kts | 330° |
| 2026-04-22 20:12 | 24.95502 | 46.71581 | 2033 ft | 133 kts | 330° |
| 2026-04-22 20:12 | 24.96450 | 46.71008 | 2150 ft | 168 kts | 332° |
| 2026-04-22 20:13 | 24.97466 | 46.70340 | 2533 ft | 169 kts | 334° |
| 2026-04-22 20:13 | 24.98520 | 46.69806 | 2880 ft | 167 kts | 343° |
| 2026-04-22 20:13 | 24.99625 | 46.69368 | 3250 ft | 172 kts | 345° |
| 2026-04-22 20:13 | 25.00738 | 46.68937 | 3608 ft | 171 kts | 346° |
| 2026-04-22 20:14 | 25.01866 | 46.68499 | 3971 ft | 172 kts | 346° |
| 2026-04-22 20:14 | 25.02995 | 46.68057 | 4343 ft | 172 kts | 345° |
| 2026-04-22 20:14 | 25.04124 | 46.67612 | 4722 ft | 173 kts | 345° |
| 2026-04-22 20:14 | 25.05261 | 46.67164 | 5084 ft | 174 kts | 344° |
| 2026-04-22 20:15 | 25.06401 | 46.66714 | 5452 ft | 174 kts | 342° |
| 2026-04-22 20:15 | 25.07539 | 46.66263 | 5820 ft | 174 kts | 341° |
| 2026-04-22 20:15 | 25.08708 | 46.65880 | 6192 ft | 176 kts | 351° |
| 2026-04-22 20:15 | 25.09916 | 46.65820 | 6547 ft | 178 kts | 4° |
| 2026-04-22 20:16 | 25.11137 | 46.66110 | 6903 ft | 182 kts | 19° |
| 2026-04-22 20:16 | 25.12347 | 46.66575 | 7263 ft | 186 kts | 18° |
| 2026-04-22 20:16 | 25.13573 | 46.67039 | 7624 ft | 189 kts | 15° |
| 2026-04-22 20:16 | 25.14837 | 46.67515 | 7929 ft | 196 kts | 15° |
| 2026-04-22 20:17 | 25.16134 | 46.68002 | 7965 ft | 197 kts | 15° |
| 2026-04-22 20:17 | 25.17440 | 46.68438 | 7967 ft | 199 kts | 8° |
| 2026-04-22 20:17 | 25.18910 | 46.68652 | 8061 ft | 227 kts | 0° |
| 2026-04-22 20:17 | 25.20555 | 46.68560 | 8280 ft | 246 kts | 346° |
| 2026-04-22 20:18 | 25.22232 | 46.68110 | 8755 ft | 256 kts | 340° |
| 2026-04-22 20:18 | 25.23963 | 46.67558 | 9528 ft | 262 kts | 340° |
| 2026-04-22 20:18 | 25.25733 | 46.67003 | 10293 ft | 267 kts | 340° |
| 2026-04-22 20:18 | 25.27546 | 46.66495 | 11036 ft | 272 kts | 347° |
| 2026-04-22 20:19 | 25.29458 | 46.66393 | 11800 ft | 280 kts | 0° |
| 2026-04-22 20:19 | 25.31397 | 46.66793 | 12570 ft | 288 kts | 15° |
| 2026-04-22 20:19 | 25.33244 | 46.67722 | 13304 ft | 297 kts | 30° |
| 2026-04-22 20:19 | 25.34874 | 46.69161 | 14006 ft | 304 kts | 45° |
| 2026-04-22 20:20 | 25.36197 | 46.71025 | 14369 ft | 323 kts | 55° |
| 2026-04-22 20:20 | 25.37481 | 46.73121 | 14870 ft | 333 kts | 55° |
| 2026-04-22 20:20 | 25.38791 | 46.75264 | 15515 ft | 339 kts | 55° |
| 2026-04-22 20:20 | 25.40170 | 46.77400 | 16190 ft | 343 kts | 52° |
| 2026-04-22 20:21 | 25.41637 | 46.79501 | 16864 ft | 347 kts | 50° |
| 2026-04-22 20:21 | 25.43156 | 46.81591 | 17541 ft | 351 kts | 49° |
| 2026-04-22 20:21 | 25.44712 | 46.83703 | 18240 ft | 356 kts | 48° |
| 2026-04-22 20:21 | 25.46280 | 46.85837 | 18837 ft | 360 kts | 48° |
| 2026-04-22 20:22 | 25.47857 | 46.88004 | 19418 ft | 364 kts | 49° |
| 2026-04-22 20:22 | 25.49427 | 46.90181 | 20004 ft | 368 kts | 49° |
| 2026-04-22 20:22 | 25.51020 | 46.92412 | 20590 ft | 372 kts | 49° |
| 2026-04-22 20:22 | 25.52634 | 46.94680 | 20912 ft | 377 kts | 49° |
| 2026-04-22 20:23 | 25.54253 | 46.96960 | 21001 ft | 378 kts | 49° |
| 2026-04-22 20:23 | 25.55881 | 46.99251 | 21001 ft | 377 kts | 49° |
| 2026-04-22 20:23 | 25.57502 | 47.01529 | 21001 ft | 377 kts | 49° |
| 2026-04-22 20:23 | 25.59129 | 47.03818 | 21005 ft | 377 kts | 49° |
| 2026-04-22 20:24 | 25.60749 | 47.06098 | 20995 ft | 377 kts | 49° |
| 2026-04-22 20:24 | 25.62372 | 47.08382 | 21001 ft | 377 kts | 49° |
| 2026-04-22 20:24 | 25.63997 | 47.10665 | 20998 ft | 377 kts | 49° |
| 2026-04-22 20:24 | 25.65602 | 47.12919 | 20998 ft | 377 kts | 49° |
| 2026-04-22 20:25 | 25.67224 | 47.15201 | 21001 ft | 377 kts | 49° |
| 2026-04-22 20:25 | 25.68850 | 47.17491 | 21001 ft | 377 kts | 49° |
| 2026-04-22 20:25 | 25.70469 | 47.19775 | 21002 ft | 377 kts | 49° |
| 2026-04-22 20:25 | 25.72090 | 47.22063 | 21002 ft | 377 kts | 49° |
| 2026-04-22 20:26 | 25.73715 | 47.24356 | 21002 ft | 377 kts | 49° |
| 2026-04-22 20:26 | 25.75323 | 47.26616 | 21002 ft | 377 kts | 47° |
| 2026-04-22 20:26 | 25.77109 | 47.28727 | 21001 ft | 373 kts | 38° |
| 2026-04-22 20:26 | 25.79122 | 47.30519 | 21005 ft | 369 kts | 30° |
| 2026-04-22 20:27 | 25.81189 | 47.32146 | 20999 ft | 370 kts | 31° |
| 2026-04-22 20:27 | 25.83283 | 47.33798 | 21001 ft | 370 kts | 31° |
| 2026-04-22 20:27 | 25.85380 | 47.35460 | 21003 ft | 370 kts | 31° |
| 2026-04-22 20:27 | 25.87474 | 47.37121 | 21001 ft | 370 kts | 31° |
| 2026-04-22 20:28 | 25.89566 | 47.38779 | 20992 ft | 370 kts | 31° |
| 2026-04-22 20:28 | 25.91661 | 47.40441 | 21007 ft | 370 kts | 31° |
| 2026-04-22 20:28 | 25.93753 | 47.42103 | 21003 ft | 370 kts | 31° |
| 2026-04-22 20:28 | 25.95848 | 47.43767 | 21009 ft | 370 kts | 31° |
| 2026-04-22 20:29 | 25.97916 | 47.45410 | 21008 ft | 370 kts | 31° |
| 2026-04-22 20:29 | 26.00009 | 47.47073 | 21000 ft | 371 kts | 31° |
| 2026-04-22 20:29 | 26.02110 | 47.48741 | 21006 ft | 371 kts | 31° |
| 2026-04-22 20:29 | 26.04208 | 47.50407 | 21000 ft | 371 kts | 31° |
| 2026-04-22 20:30 | 26.06307 | 47.52075 | 20997 ft | 371 kts | 31° |
| 2026-04-22 20:30 | 26.08400 | 47.53739 | 20992 ft | 370 kts | 31° |
| 2026-04-22 20:30 | 26.10495 | 47.55406 | 20992 ft | 370 kts | 31° |
| 2026-04-22 20:30 | 26.12593 | 47.57076 | 20994 ft | 370 kts | 31° |
| 2026-04-22 20:31 | 26.14686 | 47.58745 | 20987 ft | 370 kts | 31° |
| 2026-04-22 20:31 | 26.16782 | 47.60418 | 20993 ft | 370 kts | 31° |
| 2026-04-22 20:31 | 26.18845 | 47.62065 | 20982 ft | 370 kts | 31° |
| 2026-04-22 20:31 | 26.20935 | 47.63733 | 20987 ft | 370 kts | 31° |
| 2026-04-22 20:32 | 26.23029 | 47.65404 | 20993 ft | 370 kts | 31° |
| 2026-04-22 20:32 | 26.25006 | 47.67248 | 20997 ft | 374 kts | 41° |
| 2026-04-22 20:32 | 26.26702 | 47.69462 | 20977 ft | 378 kts | 52° |
| 2026-04-22 20:32 | 26.28057 | 47.71978 | 20970 ft | 379 kts | 63° |
| 2026-04-22 20:33 | 26.29029 | 47.74706 | 20966 ft | 380 kts | 74° |
| 2026-04-22 20:33 | 26.29652 | 47.77568 | 20967 ft | 380 kts | 78° |
| 2026-04-22 20:33 | 26.30226 | 47.80405 | 20966 ft | 380 kts | 78° |
| 2026-04-22 20:33 | 26.30813 | 47.83278 | 20969 ft | 380 kts | 78° |
| 2026-04-22 20:34 | 26.31402 | 47.86150 | 20970 ft | 380 kts | 78° |
| 2026-04-22 20:34 | 26.31992 | 47.89025 | 20965 ft | 380 kts | 78° |
| 2026-04-22 20:34 | 26.32582 | 47.91900 | 20956 ft | 380 kts | 78° |
| 2026-04-22 20:34 | 26.33169 | 47.94769 | 20968 ft | 380 kts | 78° |
| 2026-04-22 20:35 | 26.33756 | 47.97649 | 20965 ft | 380 kts | 78° |
| 2026-04-22 20:35 | 26.34340 | 48.00522 | 20963 ft | 380 kts | 78° |
| 2026-04-22 20:35 | 26.34913 | 48.03357 | 20971 ft | 380 kts | 78° |
| 2026-04-22 20:35 | 26.35493 | 48.06227 | 20965 ft | 380 kts | 78° |
| 2026-04-22 20:36 | 26.36075 | 48.09103 | 20971 ft | 380 kts | 78° |
| 2026-04-22 20:36 | 26.36657 | 48.11973 | 20972 ft | 380 kts | 78° |
| 2026-04-22 20:36 | 26.37239 | 48.14843 | 20972 ft | 380 kts | 78° |
| 2026-04-22 20:36 | 26.37819 | 48.17715 | 20969 ft | 380 kts | 78° |
| 2026-04-22 20:37 | 26.38397 | 48.20589 | 20962 ft | 380 kts | 78° |
| 2026-04-22 20:37 | 26.38974 | 48.23459 | 20959 ft | 380 kts | 78° |
| 2026-04-22 20:37 | 26.39552 | 48.26331 | 20961 ft | 379 kts | 78° |
| 2026-04-22 20:37 | 26.40123 | 48.29165 | 20964 ft | 379 kts | 78° |
| 2026-04-22 20:38 | 26.40698 | 48.32033 | 20958 ft | 379 kts | 78° |
| 2026-04-22 20:38 | 26.41274 | 48.34906 | 20953 ft | 379 kts | 78° |
| 2026-04-22 20:38 | 26.41850 | 48.37774 | 20956 ft | 379 kts | 78° |
| 2026-04-22 20:38 | 26.42426 | 48.40645 | 20951 ft | 379 kts | 78° |
| 2026-04-22 20:39 | 26.42998 | 48.43510 | 20957 ft | 379 kts | 78° |
| 2026-04-22 20:39 | 26.43571 | 48.46384 | 20952 ft | 379 kts | 78° |
| 2026-04-22 20:39 | 26.44144 | 48.49255 | 20759 ft | 380 kts | 78° |
| 2026-04-22 20:39 | 26.44710 | 48.52089 | 20451 ft | 377 kts | 78° |
| 2026-04-22 20:40 | 26.45280 | 48.54937 | 20137 ft | 375 kts | 78° |
| 2026-04-22 20:40 | 26.45845 | 48.57774 | 19831 ft | 373 kts | 78° |
| 2026-04-22 20:40 | 26.46403 | 48.60591 | 19526 ft | 371 kts | 78° |
| 2026-04-22 20:40 | 26.46959 | 48.63393 | 19225 ft | 369 kts | 78° |
| 2026-04-22 20:41 | 26.47513 | 48.66191 | 18918 ft | 368 kts | 79° |
| 2026-04-22 20:41 | 26.48069 | 48.68969 | 18623 ft | 367 kts | 78° |
| 2026-04-22 20:41 | 26.48612 | 48.71742 | 18330 ft | 364 kts | 83° |
| 2026-04-22 20:41 | 26.48629 | 48.74530 | 17987 ft | 356 kts | 104° |
| 2026-04-22 20:42 | 26.48098 | 48.77172 | 17630 ft | 353 kts | 108° |
| 2026-04-22 20:42 | 26.47522 | 48.79836 | 17270 ft | 352 kts | 108° |
| 2026-04-22 20:42 | 26.46948 | 48.82483 | 16921 ft | 351 kts | 108° |
| 2026-04-22 20:42 | 26.46374 | 48.85123 | 16567 ft | 350 kts | 108° |
| 2026-04-22 20:43 | 26.45802 | 48.87758 | 16216 ft | 349 kts | 108° |
| 2026-04-22 20:43 | 26.45231 | 48.90389 | 15877 ft | 348 kts | 108° |
| 2026-04-22 20:43 | 26.44664 | 48.93012 | 15530 ft | 348 kts | 108° |
| 2026-04-22 20:43 | 26.44098 | 48.95636 | 15192 ft | 347 kts | 108° |
| 2026-04-22 20:44 | 26.43538 | 48.98215 | 14869 ft | 347 kts | 108° |
| 2026-04-22 20:44 | 26.42968 | 49.00828 | 14540 ft | 346 kts | 108° |
| 2026-04-22 20:44 | 26.42396 | 49.03437 | 14213 ft | 346 kts | 108° |
| 2026-04-22 20:44 | 26.41825 | 49.06035 | 13897 ft | 345 kts | 108° |
| 2026-04-22 20:45 | 26.41254 | 49.08630 | 13553 ft | 344 kts | 108° |
| 2026-04-22 20:45 | 26.40687 | 49.11212 | 13194 ft | 343 kts | 107° |
| 2026-04-22 20:45 | 26.40120 | 49.13799 | 12839 ft | 341 kts | 107° |
| 2026-04-22 20:45 | 26.39561 | 49.16360 | 12490 ft | 339 kts | 107° |
| 2026-04-22 20:46 | 26.38450 | 49.21440 | 11791 ft | 335 kts | 107° |
| 2026-04-22 20:46 | 26.37906 | 49.23922 | 11457 ft | 332 kts | 107° |
| 2026-04-22 20:46 | 26.37359 | 49.26414 | 11121 ft | 330 kts | 107° |
| 2026-04-22 20:47 | 26.36816 | 49.28887 | 10791 ft | 327 kts | 107° |
| 2026-04-22 20:47 | 26.36278 | 49.31332 | 10462 ft | 324 kts | 107° |
| 2026-04-22 20:47 | 26.35743 | 49.33757 | 10125 ft | 321 kts | 108° |
| 2026-04-22 20:47 | 26.35215 | 49.36153 | 9901 ft | 314 kts | 108° |
| 2026-04-22 20:48 | 26.34708 | 49.38463 | 9887 ft | 299 kts | 108° |
| 2026-04-22 20:48 | 26.34229 | 49.40641 | 9895 ft | 291 kts | 108° |
| 2026-04-22 20:48 | 26.33747 | 49.42823 | 9898 ft | 289 kts | 108° |
| 2026-04-22 20:48 | 26.33264 | 49.44998 | 9893 ft | 288 kts | 108° |
| 2026-04-22 20:49 | 26.32794 | 49.47116 | 9890 ft | 277 kts | 108° |
| 2026-04-22 20:49 | 26.32334 | 49.49186 | 9892 ft | 274 kts | 108° |
| 2026-04-22 20:49 | 26.31887 | 49.51208 | 9827 ft | 265 kts | 108° |
| 2026-04-22 20:49 | 26.31436 | 49.53232 | 9253 ft | 275 kts | 108° |
| 2026-04-22 20:50 | 26.30971 | 49.55313 | 8866 ft | 277 kts | 107° |
| 2026-04-22 20:50 | 26.30508 | 49.57397 | 8494 ft | 278 kts | 106° |
| 2026-04-22 20:50 | 26.30050 | 49.59460 | 8132 ft | 278 kts | 106° |
| 2026-04-22 20:50 | 26.29587 | 49.61545 | 7811 ft | 276 kts | 105° |
| 2026-04-22 20:51 | 26.29129 | 49.63607 | 7525 ft | 273 kts | 105° |
| 2026-04-22 20:51 | 26.28681 | 49.65620 | 7218 ft | 261 kts | 105° |
| 2026-04-22 20:51 | 26.28255 | 49.67535 | 6866 ft | 250 kts | 105° |
| 2026-04-22 20:51 | 26.27839 | 49.69391 | 6460 ft | 245 kts | 104° |
| 2026-04-22 20:52 | 26.27427 | 49.71222 | 5896 ft | 243 kts | 104° |
| 2026-04-22 20:52 | 26.27018 | 49.73043 | 5332 ft | 242 kts | 104° |
| 2026-04-22 20:52 | 26.26617 | 49.74857 | 4779 ft | 240 kts | 102° |
| 2026-04-22 20:52 | 26.26382 | 49.76698 | 4212 ft | 239 kts | 92° |
| 2026-04-22 20:53 | 26.26360 | 49.78539 | 3655 ft | 236 kts | 87° |
| 2026-04-22 20:53 | 26.26459 | 49.80268 | 3441 ft | 213 kts | 83° |
| 2026-04-22 20:53 | 26.26726 | 49.81775 | 3310 ft | 186 kts | 63° |
| 2026-04-22 20:53 | 26.27525 | 49.82867 | 2740 ft | 187 kts | 32° |
| 2026-04-22 20:54 | 26.28752 | 49.83361 | 2166 ft | 189 kts | 13° |
| 2026-04-22 20:54 | 26.29967 | 49.83655 | 2060 ft | 168 kts | 9° |
| 2026-04-22 20:54 | 26.31070 | 49.83855 | 1892 ft | 158 kts | 10° |
| 2026-04-22 20:54 | 26.32162 | 49.84029 | 1515 ft | 159 kts | 8° |
| 2026-04-22 20:55 | 26.33210 | 49.84226 | 1378 ft | 152 kts | 12° |
| 2026-04-22 20:55 | 26.34215 | 49.84509 | 1200 ft | 145 kts | 15° |
| 2026-04-22 20:55 | 26.35195 | 49.84727 | 976 ft | 143 kts | 357° |
| 2026-04-22 20:55 | 26.36146 | 49.84475 | 901 ft | 142 kts | 340° |
| 2026-04-22 20:56 | 26.37084 | 49.84103 | 987 ft | 143 kts | 341° |
| 2026-04-22 20:56 | 26.38017 | 49.83707 | 1103 ft | 143 kts | 341° |
| 2026-04-22 20:56 | 26.38967 | 49.83387 | 1117 ft | 142 kts | 348° |
| 2026-04-22 20:56 | 26.39928 | 49.83152 | 1060 ft | 142 kts | 349° |
| 2026-04-22 20:57 | 26.40873 | 49.82845 | 952 ft | 140 kts | 344° |
| 2026-04-22 20:57 | 26.41810 | 49.82565 | 807 ft | 140 kts | 343° |
| 2026-04-22 20:57 | 26.42764 | 49.82244 | 685 ft | 144 kts | 339° |
| 2026-04-22 20:57 | 26.43716 | 49.81937 | 596 ft | 145 kts | 343° |
| 2026-04-22 20:58 | 26.44669 | 49.81661 | 381 ft | 138 kts | 338° |
| 2026-04-22 20:58 | 26.45592 | 49.81383 | 180 ft | 140 kts | 339° |
| 2026-04-22 20:58 | 26.46461 | 49.81105 | 88 ft | 116 kts | 339° |
| 2026-04-22 20:58 | 26.47115 | 49.80897 | 88 ft | 83 kts | 346° |
| 2026-04-22 20:59 | 26.47451 | 49.80806 | 87 ft | 15 kts | 342° |
| 2026-04-22 20:59 | 26.47548 | 49.80766 | 89 ft | 15 kts | 334° |
| 2026-04-22 20:59 | 26.47635 | 49.80697 | 89 ft | 16 kts | 316° |
| 2026-04-22 20:59 | 26.47706 | 49.80620 | 88 ft | 16 kts | 314° |
| 2026-04-22 21:00 | 26.47786 | 49.80528 | 85 ft | 17 kts | 313° |
| 2026-04-22 21:00 | 26.47847 | 49.80418 | 85 ft | 17 kts | 276° |
| 2026-04-22 21:00 | 26.47817 | 49.80289 | 88 ft | 18 kts | 254° |
| 2026-04-22 21:00 | 26.47783 | 49.80154 | 87 ft | 19 kts | 255° |
| 2026-04-22 21:01 | 26.47750 | 49.80017 | 88 ft | 17 kts | 255° |
| 2026-04-22 21:01 | 26.47722 | 49.79900 | 93 ft | 15 kts | 254° |
| 2026-04-22 21:01 | 26.47691 | 49.79771 | 94 ft | 19 kts | 252° |
| 2026-04-22 21:01 | 26.47651 | 49.79621 | 94 ft | 21 kts | 253° |
| 2026-04-22 21:02 | 26.47615 | 49.79467 | 94 ft | 20 kts | 255° |
| 2026-04-22 21:02 | 26.47574 | 49.79309 | 92 ft | 22 kts | 253° |
| 2026-04-22 21:02 | 26.47540 | 49.79174 | 87 ft | 15 kts | 254° |
| 2026-04-22 21:02 | 26.47465 | 49.79119 | 87 ft | 14 kts | 165° |
| 2026-04-22 21:03 | 26.47378 | 49.79147 | 86 ft | 12 kts | 164° |
| 2026-04-22 21:03 | 26.47307 | 49.79172 | 87 ft | 10 kts | 156° |
| 2026-04-22 21:03 | 26.47255 | 49.79203 | 86 ft | 7 kts | 152° |
| 2026-04-22 21:03 | 26.47232 | 49.79238 | 85 ft | 5 kts | 87° |
| 2026-04-22 21:04 | 26.47243 | 49.79266 | 89 ft | 5 kts | 68° |
| 2026-04-22 21:04 | 26.47259 | 49.79298 | 88 ft | 1 kts | 60° |
| 2026-04-22 21:04 | 26.47260 | 49.79300 | 88 ft | 0 kts | 61° |